createdAt,value
2019-04-20T00:01:29.390Z,5.10
2019-04-20T00:04:33.922Z,5.10
2019-04-20T00:07:37.519Z,4.40
2019-04-20T00:10:51.374Z,4.73
2019-04-20T00:13:56.214Z,4.67
2019-04-20T00:16:52.788Z,5.13
2019-04-20T00:19:57.849Z,4.57
2019-04-20T00:23:19.779Z,4.87
2019-04-20T00:27:03.453Z,4.87
2019-04-20T00:29:56.214Z,5.43
2019-04-20T00:32:55.518Z,5.15
2019-04-20T00:35:48.462Z,5.13
2019-04-20T00:38:56.893Z,4.90
2019-04-20T00:42:03.435Z,5.40
2019-04-20T00:45:10.579Z,5.70
2019-04-20T00:48:22.543Z,5.30
2019-04-20T00:51:35.379Z,5.27
2019-04-20T00:54:20.158Z,5.60
2019-04-20T00:57:34.685Z,6.70
2019-04-20T01:00:48.373Z,5.73
2019-04-20T01:03:52.284Z,5.30
2019-04-20T01:07:17.550Z,5.83
2019-04-20T01:10:11.203Z,7.07
2019-04-20T01:13:19.806Z,6.97
2019-04-20T01:16:29.618Z,6.60
2019-04-20T01:19:25.842Z,6.20
2019-04-20T01:22:33.906Z,5.30
2019-04-20T01:25:40.162Z,6.47
2019-04-20T01:28:54.139Z,6.17
2019-04-20T01:32:00.726Z,7.00
2019-04-20T01:35:04.685Z,5.90
2019-04-20T01:38:16.918Z,5.30
2019-04-20T01:41:03.465Z,6.27
2019-04-20T01:44:07.183Z,6.07
2019-04-20T01:47:12.019Z,5.57
2019-04-20T01:50:22.951Z,6.50
2019-04-20T01:53:44.375Z,6.30
2019-04-20T01:56:48.613Z,6.17
2019-04-20T01:59:54.292Z,6.40
2019-04-20T02:03:01.292Z,7.03
2019-04-20T02:06:06.382Z,5.47
2019-04-20T02:09:13.610Z,6.40
2019-04-20T02:12:21.594Z,6.47
2019-04-20T02:15:30.004Z,6.90
2019-04-20T02:18:35.922Z,7.20
2019-04-20T02:21:47.680Z,6.93
2019-04-20T02:24:37.477Z,5.97
2019-04-20T02:27:49.654Z,7.87
2019-04-20T02:31:24.789Z,8.03
2019-04-20T02:34:31.856Z,6.50
2019-04-20T02:37:51.361Z,6.80
2019-04-20T02:40:52.619Z,7.20
2019-04-20T02:46:57.482Z,6.70
2019-04-20T02:53:13.229Z,7.77
2019-04-20T02:56:12.351Z,7.43
2019-04-20T02:59:56.280Z,6.97
2019-04-20T03:02:10.223Z,8.17
2019-04-20T03:05:13.637Z,6.47
2019-04-20T03:08:22.266Z,6.57
2019-04-20T03:11:44.192Z,6.80
2019-04-20T03:14:30.387Z,10.83
2019-04-20T03:17:46.529Z,6.43
2019-04-20T03:20:46.274Z,8.50
2019-04-20T03:24:03.619Z,7.10
2019-04-20T03:26:59.566Z,7.73
2019-04-20T03:36:54.430Z,7.57
2019-04-20T03:39:51.448Z,8.17
2019-04-20T03:42:37.147Z,7.70
2019-04-20T03:45:48.656Z,8.40
2019-04-20T03:48:59.839Z,8.50
2019-04-20T03:52:31.363Z,8.53
2019-04-20T03:55:47.464Z,9.20
2019-04-20T03:58:54.758Z,9.33
2019-04-20T04:02:33.173Z,12.17
2019-04-20T04:05:23.831Z,9.93
2019-04-20T04:08:17.064Z,8.73
2019-04-20T04:11:34.051Z,10.00
2019-04-20T04:14:21.841Z,8.37
2019-04-20T04:17:31.399Z,9.40
2019-04-20T04:20:38.702Z,12.00
2019-04-20T04:23:56.142Z,10.50
2019-04-20T04:26:55.060Z,10.67
2019-04-20T04:30:08.038Z,10.60
2019-04-20T04:33:39.913Z,11.53
2019-04-20T04:36:15.370Z,12.83
2019-04-20T04:39:27.999Z,10.77
2019-04-20T04:42:36.722Z,12.27
2019-04-20T04:45:19.351Z,10.77
2019-04-20T04:48:31.476Z,14.70
2019-04-20T04:51:38.464Z,11.70
2019-04-20T04:54:43.859Z,11.80
2019-04-20T04:57:39.114Z,13.40
2019-04-20T05:00:44.477Z,11.83
2019-04-20T05:04:17.204Z,12.77
2019-04-20T05:07:07.265Z,15.33
2019-04-20T05:09:59.431Z,11.47
2019-04-20T05:13:03.438Z,15.97
2019-04-20T05:16:19.300Z,12.90
2019-04-20T05:19:37.095Z,11.17
2019-04-20T05:22:40.915Z,14.33
2019-04-20T05:26:25.632Z,17.85
2019-04-20T05:29:03.434Z,12.80
2019-04-20T05:32:07.861Z,12.17
2019-04-20T05:35:27.057Z,14.10
2019-04-20T05:38:37.126Z,15.88
2019-04-20T05:41:39.055Z,13.97
2019-04-20T05:44:46.720Z,13.90
2019-04-20T05:47:48.335Z,15.03
2019-04-20T05:50:52.836Z,13.60
2019-04-20T05:54:02.680Z,12.33
2019-04-20T05:57:14.753Z,13.07
2019-04-20T06:00:14.612Z,13.67
2019-04-20T06:03:15.269Z,17.03
2019-04-20T06:06:22.047Z,16.17
2019-04-20T06:09:48.189Z,13.40
2019-04-20T06:12:35.756Z,14.07
2019-04-20T06:15:46.753Z,13.90
2019-04-20T06:18:46.981Z,15.10
2019-04-20T06:22:14.918Z,13.47
2019-04-20T06:25:40.827Z,12.75
2019-04-20T06:28:26.803Z,15.67
2019-04-20T06:31:32.499Z,12.93
2019-04-20T06:37:55.100Z,14.97
2019-04-20T06:40:59.435Z,11.37
2019-04-20T06:44:05.935Z,16.07
2019-04-20T06:47:10.370Z,19.35
2019-04-20T06:50:07.504Z,17.33
2019-04-20T06:53:28.522Z,12.63
2019-04-20T06:56:31.069Z,14.30
2019-04-20T06:59:39.011Z,16.13
2019-04-20T07:02:44.607Z,13.45
2019-04-20T07:05:47.770Z,13.77
2019-04-20T07:11:58.097Z,17.67
2019-04-20T07:14:54.227Z,14.35
2019-04-20T07:18:09.482Z,21.23
2019-04-20T07:21:28.838Z,14.30
2019-04-20T07:24:38.454Z,15.77
2019-04-20T07:27:29.511Z,13.00
2019-04-20T07:30:35.266Z,15.13
2019-04-20T07:33:46.428Z,14.00
2019-04-20T07:37:04.538Z,13.77
2019-04-20T07:40:03.953Z,15.93
2019-04-20T07:42:58.926Z,14.10
2019-04-20T07:46:12.025Z,12.43
2019-04-20T07:49:12.876Z,17.63
2019-04-20T07:51:55.588Z,13.17
2019-04-20T07:55:33.665Z,15.23
2019-04-20T07:58:17.440Z,18.37
2019-04-20T08:01:52.642Z,15.37
2019-04-20T08:04:56.280Z,13.27
2019-04-20T08:07:57.240Z,14.73
2019-04-20T08:11:07.464Z,13.13
2019-04-20T08:14:25.951Z,13.50
2019-04-20T08:17:30.589Z,15.00
2019-04-20T08:20:27.919Z,13.83
2019-04-20T08:23:33.726Z,22.53
2019-04-20T08:26:26.912Z,14.57
2019-04-20T08:29:42.727Z,16.67
2019-04-20T08:32:58.442Z,13.67
2019-04-20T08:36:11.061Z,13.23
2019-04-20T08:42:22.053Z,13.27
2019-04-20T08:45:34.917Z,13.80
2019-04-20T08:48:32.876Z,17.60
2019-04-20T08:51:49.687Z,13.20
2019-04-20T08:54:45.596Z,15.57
2019-04-20T08:57:33.467Z,13.23
2019-04-20T09:00:42.971Z,13.47
2019-04-20T09:03:54.964Z,15.73
2019-04-20T09:07:02.599Z,14.00
2019-04-20T09:10:16.543Z,12.23
2019-04-20T09:13:12.075Z,13.43
2019-04-20T09:16:06.690Z,12.47
2019-04-20T09:19:14.236Z,12.10
2019-04-20T09:22:52.725Z,12.20
2019-04-20T09:29:05.894Z,12.60
2019-04-20T09:32:18.227Z,12.43
2019-04-20T09:35:24.872Z,9.67
2019-04-20T09:38:30.231Z,12.40
2019-04-20T09:41:47.133Z,11.07
2019-04-20T09:44:37.491Z,12.63
2019-04-20T09:47:43.609Z,7.93
2019-04-20T09:51:04.775Z,10.37
2019-04-20T09:54:01.103Z,8.10
2019-04-20T09:57:16.095Z,9.30
2019-04-20T10:00:16.737Z,9.07
2019-04-20T10:03:04.622Z,8.95
2019-04-20T10:06:09.626Z,10.87
2019-04-20T10:09:13.733Z,7.67
2019-04-20T10:12:17.612Z,9.27
2019-04-20T10:15:25.032Z,9.83
2019-04-20T10:18:27.976Z,9.70
2019-04-20T10:21:31.912Z,8.37
2019-04-20T10:24:36.876Z,8.93
2019-04-20T10:27:42.016Z,7.00
2019-04-20T10:30:46.372Z,6.27
2019-04-20T10:33:51.400Z,7.03
2019-04-20T10:37:15.516Z,7.47
2019-04-20T10:40:35.758Z,6.57
2019-04-20T10:43:26.022Z,6.10
2019-04-20T10:46:31.035Z,6.60
2019-04-20T10:49:35.389Z,7.93
2019-04-20T10:52:39.871Z,9.73
2019-04-20T10:55:43.579Z,7.37
2019-04-20T10:58:47.516Z,6.67
2019-04-20T11:01:51.841Z,6.97
2019-04-20T11:04:56.893Z,11.00
2019-04-20T11:08:02.200Z,6.73
2019-04-20T11:11:12.893Z,6.93
2019-04-20T11:14:17.986Z,7.90
2019-04-20T11:17:18.217Z,9.23
2019-04-20T11:20:23.215Z,7.47
2019-04-20T11:23:28.649Z,10.13
2019-04-20T11:26:35.409Z,7.87
2019-04-20T11:29:38.089Z,6.90
2019-04-20T11:32:42.199Z,7.07
2019-04-20T11:35:46.873Z,7.40
2019-04-20T11:38:51.460Z,7.40
2019-04-20T11:41:55.893Z,7.27
2019-04-20T11:45:00.445Z,7.13
2019-04-20T11:48:05.408Z,7.00
2019-04-20T11:51:09.595Z,7.83
2019-04-20T11:54:14.586Z,8.10
2019-04-20T11:57:19.511Z,7.53
2019-04-20T12:00:46.994Z,7.47
2019-04-20T12:03:52.984Z,8.08
2019-04-20T12:06:49.049Z,7.25
2019-04-20T12:09:53.490Z,9.13
2019-04-20T12:12:57.631Z,7.67
2019-04-20T12:16:01.648Z,10.57
2019-04-20T12:19:06.385Z,7.37
2019-04-20T12:22:10.161Z,7.23
2019-04-20T12:25:14.483Z,8.53
2019-04-20T12:28:19.757Z,8.23
2019-04-20T12:31:27.420Z,8.20
2019-04-20T12:34:30.635Z,7.70
2019-04-20T12:37:34.675Z,7.80
2019-04-20T12:40:38.371Z,11.40
2019-04-20T12:43:43.532Z,8.93
2019-04-20T12:46:47.816Z,7.80
2019-04-20T12:49:51.718Z,9.33
2019-04-20T12:52:56.730Z,8.37
2019-04-20T12:56:02.193Z,6.80
2019-04-20T12:59:07.370Z,7.30
2019-04-20T13:02:11.874Z,6.43
2019-04-20T13:05:17.485Z,8.17
2019-04-20T13:08:28.520Z,7.20
2019-04-20T13:11:50.711Z,14.97
2019-04-20T13:15:28.839Z,6.90
2019-04-20T13:19:03.748Z,8.50
2019-04-20T13:22:07.700Z,6.20
2019-04-20T13:25:12.814Z,8.53
2019-04-20T13:28:16.933Z,9.20
2019-04-20T13:31:21.877Z,6.33
2019-04-20T13:34:26.428Z,7.03
2019-04-20T13:37:31.828Z,7.50
2019-04-20T13:40:35.841Z,8.27
2019-04-20T13:43:39.738Z,7.60
2019-04-20T13:46:44.977Z,7.80
2019-04-20T13:49:49.208Z,7.80
2019-04-20T13:52:53.083Z,7.23
2019-04-20T13:55:58.198Z,6.63
2019-04-20T13:59:25.834Z,7.03
2019-04-20T14:02:35.443Z,7.40
2019-04-20T14:05:40.515Z,12.43
2019-04-20T14:08:45.361Z,7.47
2019-04-20T14:11:49.481Z,6.53
2019-04-20T14:14:53.348Z,10.13
2019-04-20T14:17:57.306Z,13.97
2019-04-20T14:21:02.374Z,9.33
2019-04-20T14:24:06.704Z,7.77
2019-04-20T14:27:10.859Z,7.93
2019-04-20T14:30:17.069Z,7.77
2019-04-20T14:33:21.174Z,6.17
2019-04-20T14:36:24.837Z,6.43
2019-04-20T14:39:30.118Z,6.93
2019-04-20T14:42:41.863Z,7.20
2019-04-20T14:45:40.699Z,6.30
2019-04-20T14:48:44.969Z,7.80
2019-04-20T14:51:49.893Z,6.90
2019-04-20T14:54:53.726Z,11.47
2019-04-20T14:58:01.485Z,6.83
2019-04-20T15:01:10.397Z,5.60
2019-04-20T15:04:17.879Z,6.70
2019-04-20T15:07:20.543Z,10.13
2019-04-20T15:10:25.313Z,7.93
2019-04-20T15:13:29.202Z,6.20
2019-04-20T15:16:32.994Z,10.13
2019-04-20T15:19:47.673Z,5.43
2019-04-20T15:22:53.775Z,6.35
2019-04-20T15:25:58.194Z,7.40
2019-04-20T15:29:02.200Z,6.13
2019-04-20T15:32:06.394Z,5.43
2019-04-20T15:35:11.178Z,5.77
2019-04-20T15:38:15.390Z,5.10
2019-04-20T15:41:20.726Z,5.07
2019-04-20T15:44:25.161Z,5.03
2019-04-20T15:47:29.988Z,4.63
2019-04-20T15:50:33.969Z,4.97
2019-04-20T15:53:37.788Z,5.23
2019-04-20T15:56:49.734Z,4.67
2019-04-20T15:59:48.525Z,4.67
2019-04-20T16:03:05.695Z,5.10
2019-04-20T16:06:11.501Z,4.50
2019-04-20T16:09:15.686Z,4.20
2019-04-20T16:12:20.722Z,4.00
2019-04-20T16:15:25.460Z,4.57
2019-04-20T16:18:30.778Z,6.50
2019-04-20T16:21:37.241Z,4.03
2019-04-20T16:24:45.240Z,6.33
2019-04-20T16:27:49.794Z,4.07
2019-04-20T16:30:55.803Z,4.60
2019-04-20T16:33:59.629Z,4.70
2019-04-20T16:37:04.291Z,3.83
2019-04-20T16:40:09.875Z,4.80
2019-04-20T16:43:22.115Z,5.20
2019-04-20T16:46:23.484Z,4.47
2019-04-20T16:49:25.481Z,5.17
2019-04-20T16:52:30.627Z,6.93
2019-04-20T16:55:34.841Z,4.37
2019-04-20T16:58:39.962Z,4.10
2019-04-20T17:01:44.499Z,4.23
2019-04-20T17:04:51.497Z,4.03
2019-04-20T17:07:55.378Z,4.00
2019-04-20T17:11:00.045Z,7.33
2019-04-20T17:14:04.845Z,4.60
2019-04-20T17:17:09.506Z,6.20
2019-04-20T17:20:15.596Z,4.60
2019-04-20T17:23:19.846Z,7.20
2019-04-20T17:26:32.843Z,5.10
2019-04-20T17:29:47.020Z,5.30
2019-04-20T17:32:51.831Z,4.50
2019-04-20T17:36:04.522Z,5.23
2019-04-20T17:39:07.694Z,5.67
2019-04-20T17:42:22.258Z,5.17
2019-04-20T17:45:27.212Z,5.47
2019-04-20T17:48:30.364Z,4.93
2019-04-20T17:51:47.310Z,5.07
2019-04-20T17:54:45.244Z,8.77
2019-04-20T17:57:49.282Z,6.13
2019-04-20T18:01:28.228Z,5.07
2019-04-20T18:04:48.524Z,4.70
2019-04-20T18:07:46.295Z,4.77
2019-04-20T18:10:47.451Z,4.83
2019-04-20T18:13:37.950Z,4.93
2019-04-20T18:17:08.852Z,4.47
2019-04-20T18:19:58.771Z,4.30
2019-04-20T18:23:04.324Z,4.53
2019-04-20T18:26:28.329Z,4.60
2019-04-20T18:29:36.838Z,4.70
2019-04-20T18:32:38.259Z,4.70
2019-04-20T18:35:46.012Z,4.50
2019-04-20T18:38:54.049Z,4.90
2019-04-20T18:41:57.245Z,4.80
2019-04-20T18:45:16.066Z,4.57
2019-04-20T18:48:24.645Z,4.50
2019-04-20T18:51:12.087Z,5.77
2019-04-20T18:54:21.426Z,6.30
2019-04-20T18:57:26.080Z,5.20
2019-04-20T19:00:34.422Z,6.30
2019-04-20T19:03:41.818Z,5.93
2019-04-20T19:06:41.804Z,5.47
2019-04-20T19:09:45.605Z,5.80
2019-04-20T19:12:59.913Z,5.43
2019-04-20T19:16:25.569Z,6.10
2019-04-20T19:19:37.547Z,5.43
2019-04-20T19:22:36.794Z,5.43
2019-04-20T19:25:42.472Z,5.80
2019-04-20T19:28:53.755Z,5.50
2019-04-20T19:32:11.624Z,5.87
2019-04-20T19:35:06.783Z,6.03
2019-04-20T19:38:12.549Z,6.57
2019-04-20T19:41:26.415Z,7.13
2019-04-20T19:44:25.085Z,7.70
2019-04-20T19:47:42.945Z,8.50
2019-04-20T19:50:53.343Z,8.23
2019-04-20T19:53:58.737Z,8.07
2019-04-20T19:56:54.332Z,6.57
2019-04-20T19:59:47.153Z,6.40
2019-04-20T20:02:49.963Z,5.87
2019-04-20T20:05:54.824Z,5.63
2019-04-20T20:09:04.254Z,5.13
2019-04-20T20:12:12.337Z,5.80
2019-04-20T20:15:14.864Z,5.10
2019-04-20T20:18:33.075Z,5.33
2019-04-20T20:21:32.765Z,5.20
2019-04-20T20:24:27.249Z,4.93
2019-04-20T20:27:40.321Z,5.47
2019-04-20T20:30:51.336Z,6.00
2019-04-20T20:33:56.162Z,5.63
2019-04-20T20:36:54.919Z,5.30
2019-04-20T20:40:08.930Z,8.10
2019-04-20T20:43:10.652Z,5.23
2019-04-20T20:46:17.203Z,5.73
2019-04-20T20:49:28.968Z,5.53
2019-04-20T20:52:32.222Z,5.50
2019-04-20T20:55:32.887Z,5.07
2019-04-20T20:58:43.284Z,4.97
2019-04-20T21:01:41.345Z,5.03
2019-04-20T21:04:37.845Z,5.30
2019-04-20T21:07:42.756Z,4.87
2019-04-20T21:10:48.084Z,5.37
2019-04-20T21:13:54.001Z,6.00
2019-04-20T21:17:05.537Z,5.07
2019-04-20T21:20:18.965Z,4.60
2019-04-20T21:23:26.034Z,4.93
2019-04-20T21:26:21.669Z,4.90
2019-04-20T21:29:27.335Z,5.07
2019-04-20T21:32:26.534Z,4.53
2019-04-20T21:35:36.833Z,5.00
2019-04-20T21:38:40.791Z,4.77
2019-04-20T21:41:51.290Z,4.80
2019-04-20T21:44:50.044Z,4.40
2019-04-20T21:47:52.574Z,5.00
2019-04-20T21:51:13.401Z,4.80
2019-04-20T21:54:03.773Z,4.67
2019-04-20T21:57:11.167Z,4.87
2019-04-20T22:00:37.553Z,4.97
2019-04-20T22:03:38.293Z,5.55
2019-04-20T22:06:42.400Z,4.57
2019-04-20T22:09:49.660Z,4.67
2019-04-20T22:12:57.528Z,4.80
2019-04-20T22:16:04.848Z,4.60
2019-04-20T22:19:17.507Z,5.10
2019-04-20T22:22:18.127Z,5.40
2019-04-20T22:25:36.344Z,4.90
2019-04-20T22:28:20.429Z,4.83
2019-04-20T22:31:24.475Z,5.30
2019-04-20T22:34:29.848Z,4.60
2019-04-20T22:37:42.398Z,4.93
2019-04-20T22:40:46.891Z,4.63
2019-04-20T22:43:50.851Z,5.27
2019-04-20T22:46:54.529Z,4.70
2019-04-20T22:50:15.201Z,4.13
2019-04-20T22:53:19.021Z,4.73
2019-04-20T22:56:26.851Z,5.00
2019-04-20T22:59:19.053Z,4.70
2019-04-20T23:02:22.698Z,4.87
2019-04-20T23:05:26.817Z,4.80
2019-04-20T23:08:30.799Z,4.10
2019-04-20T23:11:35.822Z,4.40
2019-04-20T23:14:40.451Z,4.67
2019-04-20T23:17:47.581Z,4.83
2019-04-20T23:20:56.613Z,4.37
2019-04-20T23:24:00.387Z,4.40
2019-04-20T23:27:04.359Z,4.13
2019-04-20T23:30:13.492Z,4.33
2019-04-20T23:33:12.379Z,4.30
2019-04-20T23:36:19.239Z,4.33
2019-04-20T23:39:29.147Z,4.77
2019-04-20T23:42:39.051Z,4.60
2019-04-20T23:45:52.676Z,4.63
2019-04-20T23:49:20.009Z,4.00
2019-04-20T23:52:42.434Z,4.43
2019-04-20T23:55:23.763Z,4.27
2019-04-20T23:58:30.963Z,4.23
